sensor_id;sensor_type;location;lat;lon;timestamp;pressure;altitude;pressure_sealevel;temperature;humidity
28344;BME280;15597;50.914;6.638;2023-08-17T00:00:02;101012.06;;;26.95;50.32
28344;BME280;15597;50.914;6.638;2023-08-17T00:02:31;101013.88;;;26.95;50.17
28344;BME280;15597;50.914;6.638;2023-08-17T00:04:57;101017.44;;;26.95;50.18
28344;BME280;15597;50.914;6.638;2023-08-17T00:07:22;101025.47;;;26.95;50.85
28344;BME280;15597;50.914;6.638;2023-08-17T00:09:48;101033.66;;;26.94;50.42
28344;BME280;15597;50.914;6.638;2023-08-17T00:12:14;101036.75;;;26.89;50.14
28344;BME280;15597;50.914;6.638;2023-08-17T00:14:40;101037.00;;;26.86;50.74
28344;BME280;15597;50.914;6.638;2023-08-17T00:17:05;101031.25;;;26.79;50.71
28344;BME280;15597;50.914;6.638;2023-08-17T00:19:31;101029.81;;;26.75;50.61
28344;BME280;15597;50.914;6.638;2023-08-17T00:21:57;101032.63;;;26.74;50.57
28344;BME280;15597;50.914;6.638;2023-08-17T00:24:22;101033.63;;;26.73;50.35
28344;BME280;15597;50.914;6.638;2023-08-17T00:26:48;101031.91;;;26.72;50.75
28344;BME280;15597;50.914;6.638;2023-08-17T00:29:14;101025.56;;;26.73;51.08
28344;BME280;15597;50.914;6.638;2023-08-17T00:31:41;101035.31;;;26.74;50.41
28344;BME280;15597;50.914;6.638;2023-08-17T00:34:06;101033.47;;;26.74;50.92
28344;BME280;15597;50.914;6.638;2023-08-17T00:36:32;101037.28;;;26.72;50.82
28344;BME280;15597;50.914;6.638;2023-08-17T00:38:58;101039.09;;;26.71;50.44
28344;BME280;15597;50.914;6.638;2023-08-17T00:41:23;101038.25;;;26.71;50.30
28344;BME280;15597;50.914;6.638;2023-08-17T00:43:49;101033.88;;;26.69;50.38
28344;BME280;15597;50.914;6.638;2023-08-17T00:46:16;101040.22;;;26.68;50.25
28344;BME280;15597;50.914;6.638;2023-08-17T00:48:42;101038.78;;;26.64;50.41
28344;BME280;15597;50.914;6.638;2023-08-17T00:51:08;101036.34;;;26.61;50.47
28344;BME280;15597;50.914;6.638;2023-08-17T00:53:34;101033.91;;;26.58;50.21
28344;BME280;15597;50.914;6.638;2023-08-17T00:56:01;101037.81;;;26.54;50.40
28344;BME280;15597;50.914;6.638;2023-08-17T00:58:28;101043.44;;;26.51;50.72
28344;BME280;15597;50.914;6.638;2023-08-17T01:00:54;101036.34;;;26.50;50.40
28344;BME280;15597;50.914;6.638;2023-08-17T01:03:21;101037.56;;;26.46;50.69
28344;BME280;15597;50.914;6.638;2023-08-17T01:05:47;101037.72;;;26.44;50.52
28344;BME280;15597;50.914;6.638;2023-08-17T01:08:13;101036.13;;;26.42;50.62
28344;BME280;15597;50.914;6.638;2023-08-17T01:11:53;101035.06;;;26.33;50.56
28344;BME280;15597;50.914;6.638;2023-08-17T01:16:26;101034.44;;;26.29;50.88
28344;BME280;15597;50.914;6.638;2023-08-17T01:18:54;101024.59;;;26.30;50.92
28344;BME280;15597;50.914;6.638;2023-08-17T01:21:21;101020.31;;;26.27;50.94
28344;BME280;15597;50.914;6.638;2023-08-17T01:23:50;101022.50;;;26.22;50.47
28344;BME280;15597;50.914;6.638;2023-08-17T01:26:16;101020.81;;;26.21;50.76
28344;BME280;15597;50.914;6.638;2023-08-17T01:28:44;101022.75;;;26.19;50.85
28344;BME280;15597;50.914;6.638;2023-08-17T01:34:18;101017.66;;;26.16;50.94
28344;BME280;15597;50.914;6.638;2023-08-17T01:36:53;101020.22;;;26.17;50.70
28344;BME280;15597;50.914;6.638;2023-08-17T01:39:25;101023.75;;;26.18;50.84
28344;BME280;15597;50.914;6.638;2023-08-17T01:41:52;101018.28;;;26.19;50.49
28344;BME280;15597;50.914;6.638;2023-08-17T01:44:21;101024.47;;;26.20;50.68
28344;BME280;15597;50.914;6.638;2023-08-17T01:46:47;101023.63;;;26.19;50.65
28344;BME280;15597;50.914;6.638;2023-08-17T01:49:13;101020.09;;;26.19;50.41
28344;BME280;15597;50.914;6.638;2023-08-17T01:51:39;101014.72;;;26.19;50.57
28344;BME280;15597;50.914;6.638;2023-08-17T01:54:05;101025.44;;;26.19;50.70
28344;BME280;15597;50.914;6.638;2023-08-17T01:56:32;101020.94;;;26.19;50.72
28344;BME280;15597;50.914;6.638;2023-08-17T01:58:58;101018.28;;;26.19;50.67
28344;BME280;15597;50.914;6.638;2023-08-17T02:01:23;101021.78;;;26.20;50.74
28344;BME280;15597;50.914;6.638;2023-08-17T02:03:49;101020.09;;;26.19;50.33
28344;BME280;15597;50.914;6.638;2023-08-17T02:06:15;101030.09;;;26.17;50.13
28344;BME280;15597;50.914;6.638;2023-08-17T02:08:44;101022.25;;;26.14;50.65
28344;BME280;15597;50.914;6.638;2023-08-17T02:11:10;101023.47;;;26.09;50.41
28344;BME280;15597;50.914;6.638;2023-08-17T02:13:37;101026.91;;;25.89;50.66
28344;BME280;15597;50.914;6.638;2023-08-17T02:16:06;101030.06;;;25.94;50.58
28344;BME280;15597;50.914;6.638;2023-08-17T02:18:32;101026.19;;;25.98;50.97
28344;BME280;15597;50.914;6.638;2023-08-17T02:20:59;101023.38;;;26.00;50.82
28344;BME280;15597;50.914;6.638;2023-08-17T02:23:25;101019.72;;;26.01;50.37
28344;BME280;15597;50.914;6.638;2023-08-17T02:25:51;101019.72;;;26.01;50.11
28344;BME280;15597;50.914;6.638;2023-08-17T02:28:19;101016.19;;;25.77;50.92
28344;BME280;15597;50.914;6.638;2023-08-17T02:30:45;101016.44;;;25.86;51.18
28344;BME280;15597;50.914;6.638;2023-08-17T02:33:12;101019.84;;;25.88;50.85
28344;BME280;15597;50.914;6.638;2023-08-17T02:35:37;101016.19;;;25.89;50.91
28344;BME280;15597;50.914;6.638;2023-08-17T02:38:03;101007.19;;;25.90;50.55
28344;BME280;15597;50.914;6.638;2023-08-17T02:40:29;101008.88;;;25.91;50.52
28344;BME280;15597;50.914;6.638;2023-08-17T02:42:54;100998.16;;;25.91;50.30
28344;BME280;15597;50.914;6.638;2023-08-17T02:45:21;100996.19;;;25.93;50.42
28344;BME280;15597;50.914;6.638;2023-08-17T02:47:47;100985.47;;;25.93;50.85
28344;BME280;15597;50.914;6.638;2023-08-17T02:50:14;100987.03;;;25.95;50.96
28344;BME280;15597;50.914;6.638;2023-08-17T02:52:40;100990.59;;;25.96;50.79
28344;BME280;15597;50.914;6.638;2023-08-17T02:55:06;100993.38;;;25.94;50.70
28344;BME280;15597;50.914;6.638;2023-08-17T02:57:31;100985.47;;;25.93;51.01
28344;BME280;15597;50.914;6.638;2023-08-17T02:59:57;100982.81;;;25.93;51.22
28344;BME280;15597;50.914;6.638;2023-08-17T03:02:23;100982.91;;;25.91;50.95
28344;BME280;15597;50.914;6.638;2023-08-17T03:04:49;100982.91;;;25.91;50.49
28344;BME280;15597;50.914;6.638;2023-08-17T03:07:14;100980.38;;;25.90;51.05
28344;BME280;15597;50.914;6.638;2023-08-17T03:09:40;100985.72;;;25.90;50.93
28344;BME280;15597;50.914;6.638;2023-08-17T03:12:06;100984.03;;;25.89;51.24
28344;BME280;15597;50.914;6.638;2023-08-17T03:14:32;100976.09;;;25.87;50.95
28344;BME280;15597;50.914;6.638;2023-08-17T03:16:59;100975.50;;;25.84;51.29
28344;BME280;15597;50.914;6.638;2023-08-17T03:19:24;100979.16;;;25.83;51.00
28344;BME280;15597;50.914;6.638;2023-08-17T03:21:50;100976.59;;;25.81;51.14
28344;BME280;15597;50.914;6.638;2023-08-17T03:24:16;100980.13;;;25.81;50.78
28344;BME280;15597;50.914;6.638;2023-08-17T03:26:41;100981.09;;;25.80;50.98
28344;BME280;15597;50.914;6.638;2023-08-17T03:29:08;100984.75;;;25.79;50.67
28344;BME280;15597;50.914;6.638;2023-08-17T03:31:35;100981.34;;;25.77;51.26
28344;BME280;15597;50.914;6.638;2023-08-17T03:34:01;100987.94;;;25.73;51.17
28344;BME280;15597;50.914;6.638;2023-08-17T03:36:27;100980.88;;;25.72;50.61
28344;BME280;15597;50.914;6.638;2023-08-17T03:38:53;100988.19;;;25.70;51.18
28344;BME280;15597;50.914;6.638;2023-08-17T03:41:21;100982.09;;;25.68;50.87
28344;BME280;15597;50.914;6.638;2023-08-17T03:43:49;100988.44;;;25.67;51.00
28344;BME280;15597;50.914;6.638;2023-08-17T03:46:14;100978.69;;;25.66;50.72
28344;BME280;15597;50.914;6.638;2023-08-17T03:48:40;100981.38;;;25.66;50.93
28344;BME280;15597;50.914;6.638;2023-08-17T03:51:06;100988.44;;;25.67;51.02
28344;BME280;15597;50.914;6.638;2023-08-17T03:53:32;100982.09;;;25.68;51.04
28344;BME280;15597;50.914;6.638;2023-08-17T03:55:58;100992.81;;;25.68;51.14
28344;BME280;15597;50.914;6.638;2023-08-17T03:58:24;100992.81;;;25.68;51.22
28344;BME280;15597;50.914;6.638;2023-08-17T04:00:52;100994.53;;;25.69;51.10
28344;BME280;15597;50.914;6.638;2023-08-17T04:03:24;101000.13;;;25.66;51.06
28344;BME280;15597;50.914;6.638;2023-08-17T04:05:50;101003.78;;;25.65;51.38
28344;BME280;15597;50.914;6.638;2023-08-17T04:08:16;101004.00;;;25.62;51.60
28344;BME280;15597;50.914;6.638;2023-08-17T04:10:41;101009.63;;;25.59;51.09
28344;BME280;15597;50.914;6.638;2023-08-17T04:13:07;101018.13;;;25.52;51.39
28344;BME280;15597;50.914;6.638;2023-08-17T04:15:33;101013.13;;;25.48;51.38
28344;BME280;15597;50.914;6.638;2023-08-17T04:17:59;101015.06;;;25.46;51.19
28344;BME280;15597;50.914;6.638;2023-08-17T04:20:25;101023.19;;;25.44;51.56
28344;BME280;15597;50.914;6.638;2023-08-17T04:22:51;101023.19;;;25.44;51.48
28344;BME280;15597;50.914;6.638;2023-08-17T04:25:17;101021.47;;;25.43;51.55
28344;BME280;15597;50.914;6.638;2023-08-17T04:27:42;101016.13;;;25.43;51.48
28344;BME280;15597;50.914;6.638;2023-08-17T04:30:09;101026.72;;;25.45;51.04
28344;BME280;15597;50.914;6.638;2023-08-17T04:32:45;101023.19;;;25.44;50.99
28344;BME280;15597;50.914;6.638;2023-08-17T04:35:18;101021.38;;;25.45;51.13
28344;BME280;15597;50.914;6.638;2023-08-17T04:37:44;101030.31;;;25.45;51.32
28344;BME280;15597;50.914;6.638;2023-08-17T04:40:10;101034.75;;;25.45;50.97
28344;BME280;15597;50.914;6.638;2023-08-17T04:42:36;101028.53;;;25.44;50.98
28344;BME280;15597;50.914;6.638;2023-08-17T04:45:02;101030.31;;;25.45;50.86
28344;BME280;15597;50.914;6.638;2023-08-17T04:47:29;101037.25;;;25.48;50.84
28344;BME280;15597;50.914;6.638;2023-08-17T04:49:55;101036.41;;;25.47;50.71
28344;BME280;15597;50.914;6.638;2023-08-17T04:52:20;101034.69;;;25.46;51.20
28344;BME280;15597;50.914;6.638;2023-08-17T04:54:46;101038.41;;;25.44;50.90
28344;BME280;15597;50.914;6.638;2023-08-17T04:57:11;101035.84;;;25.42;51.11
28344;BME280;15597;50.914;6.638;2023-08-17T04:59:38;101032.44;;;25.40;51.28
28344;BME280;15597;50.914;6.638;2023-08-17T05:02:04;101037.91;;;25.38;50.85
28344;BME280;15597;50.914;6.638;2023-08-17T05:04:31;101034.38;;;25.38;50.86
28344;BME280;15597;50.914;6.638;2023-08-17T05:06:57;101035.72;;;25.32;51.27
28344;BME280;15597;50.914;6.638;2023-08-17T05:09:23;101041.56;;;25.26;51.59
28344;BME280;15597;50.914;6.638;2023-08-17T05:11:48;101039.22;;;25.21;51.85
28344;BME280;15597;50.914;6.638;2023-08-17T05:14:14;101044.56;;;25.21;51.64
28344;BME280;15597;50.914;6.638;2023-08-17T05:16:39;101050.16;;;25.18;52.16
28344;BME280;15597;50.914;6.638;2023-08-17T05:19:05;101045.28;;;25.12;52.33
28344;BME280;15597;50.914;6.638;2023-08-17T05:21:31;101050.63;;;25.12;52.45
28344;BME280;15597;50.914;6.638;2023-08-17T05:23:57;101046.97;;;25.13;52.37
28344;BME280;15597;50.914;6.638;2023-08-17T05:26:23;101052.09;;;25.16;52.15
28344;BME280;15597;50.914;6.638;2023-08-17T05:28:48;101048.44;;;25.17;52.19
28344;BME280;15597;50.914;6.638;2023-08-17T05:31:15;101051.88;;;25.19;51.70
28344;BME280;15597;50.914;6.638;2023-08-17T05:33:44;101053.56;;;25.20;51.76
28344;BME280;15597;50.914;6.638;2023-08-17T05:36:10;101053.56;;;25.20;52.01
28344;BME280;15597;50.914;6.638;2023-08-17T05:38:36;101051.63;;;25.22;52.08
28344;BME280;15597;50.914;6.638;2023-08-17T05:41:02;101047.97;;;25.23;51.99
28344;BME280;15597;50.914;6.638;2023-08-17T05:43:27;101048.84;;;25.24;51.66
28344;BME280;15597;50.914;6.638;2023-08-17T05:45:53;101041.56;;;25.26;52.30
28344;BME280;15597;50.914;6.638;2023-08-17T05:48:19;101052.88;;;25.30;51.57
28344;BME280;15597;50.914;6.638;2023-08-17T05:50:46;101048.38;;;25.30;51.42
28344;BME280;15597;50.914;6.638;2023-08-17T05:53:11;101051.06;;;25.30;52.03
28344;BME280;15597;50.914;6.638;2023-08-17T05:55:37;101050.91;;;25.32;51.95
28344;BME280;15597;50.914;6.638;2023-08-17T05:58:03;101050.91;;;25.32;51.40
28344;BME280;15597;50.914;6.638;2023-08-17T06:00:29;101054.34;;;25.34;51.88
28344;BME280;15597;50.914;6.638;2023-08-17T06:02:55;101055.19;;;25.34;51.51
28344;BME280;15597;50.914;6.638;2023-08-17T06:05:27;101057.16;;;25.32;51.46
28344;BME280;15597;50.914;6.638;2023-08-17T06:07:57;101050.41;;;25.27;52.02
28344;BME280;15597;50.914;6.638;2023-08-17T06:10:23;101061.88;;;25.29;52.03
28344;BME280;15597;50.914;6.638;2023-08-17T06:12:54;101062.09;;;25.26;52.28
28344;BME280;15597;50.914;6.638;2023-08-17T06:15:20;101071.84;;;25.27;51.92
28344;BME280;15597;50.914;6.638;2023-08-17T06:17:46;101066.50;;;25.27;52.27
28344;BME280;15597;50.914;6.638;2023-08-17T06:20:12;101058.47;;;25.27;52.31
28344;BME280;15597;50.914;6.638;2023-08-17T06:22:37;101065.53;;;25.28;52.42
28344;BME280;15597;50.914;6.638;2023-08-17T06:25:04;101057.38;;;25.29;51.75
28344;BME280;15597;50.914;6.638;2023-08-17T06:27:31;101059.03;;;25.07;52.66
28344;BME280;15597;50.914;6.638;2023-08-17T06:29:57;101063.69;;;25.17;52.23
28344;BME280;15597;50.914;6.638;2023-08-17T06:32:22;101056.47;;;25.17;52.40
28344;BME280;15597;50.914;6.638;2023-08-17T06:34:48;101059.91;;;25.19;52.46
28344;BME280;15597;50.914;6.638;2023-08-17T06:37:13;101062.34;;;25.22;52.31
28344;BME280;15597;50.914;6.638;2023-08-17T06:39:39;101059.66;;;25.22;52.17
28344;BME280;15597;50.914;6.638;2023-08-17T06:42:05;101057.84;;;25.23;52.43
28344;BME280;15597;50.914;6.638;2023-08-17T06:44:31;101066.72;;;25.23;52.38
28344;BME280;15597;50.914;6.638;2023-08-17T06:46:57;101067.47;;;25.26;52.59
28344;BME280;15597;50.914;6.638;2023-08-17T06:49:22;101074.53;;;25.27;52.51
28344;BME280;15597;50.914;6.638;2023-08-17T06:51:48;101066.50;;;25.27;52.36
28344;BME280;15597;50.914;6.638;2023-08-17T06:54:13;101056.50;;;25.29;52.54
28344;BME280;15597;50.914;6.638;2023-08-17T06:56:39;101056.28;;;25.32;51.93
28344;BME280;15597;50.914;6.638;2023-08-17T06:59:04;101057.97;;;25.33;52.01
28344;BME280;15597;50.914;6.638;2023-08-17T07:01:31;101058.63;;;25.36;52.35
28344;BME280;15597;50.914;6.638;2023-08-17T07:03:57;101063.84;;;25.38;51.78
28344;BME280;15597;50.914;6.638;2023-08-17T07:06:24;101068.97;;;25.41;51.79
28344;BME280;15597;50.914;6.638;2023-08-17T07:08:49;101067.97;;;25.42;52.26
28344;BME280;15597;50.914;6.638;2023-08-17T07:11:15;101072.38;;;25.43;52.75
28344;BME280;15597;50.914;6.638;2023-08-17T07:13:40;101073.16;;;25.45;52.17
28344;BME280;15597;50.914;6.638;2023-08-17T07:16:06;101074.75;;;25.48;52.09
28344;BME280;15597;50.914;6.638;2023-08-17T07:18:32;101080.97;;;25.48;52.14
28344;BME280;15597;50.914;6.638;2023-08-17T07:20:57;101080.00;;;25.49;51.87
28344;BME280;15597;50.914;6.638;2023-08-17T07:23:23;101080.00;;;25.49;52.21
28344;BME280;15597;50.914;6.638;2023-08-17T07:25:49;101080.00;;;25.49;52.35
28344;BME280;15597;50.914;6.638;2023-08-17T07:28:15;101082.78;;;25.48;52.13
28344;BME280;15597;50.914;6.638;2023-08-17T07:30:41;101088.34;;;25.45;51.93
28344;BME280;15597;50.914;6.638;2023-08-17T07:33:06;101087.47;;;25.44;52.05
28344;BME280;15597;50.914;6.638;2023-08-17T07:35:32;101083.22;;;25.42;52.20
28344;BME280;15597;50.914;6.638;2023-08-17T07:37:57;101083.31;;;25.40;52.33
28344;BME280;15597;50.914;6.638;2023-08-17T07:40:23;101080.66;;;25.40;52.51
28344;BME280;15597;50.914;6.638;2023-08-17T07:42:48;101080.66;;;25.40;52.76
28344;BME280;15597;50.914;6.638;2023-08-17T07:45:14;101092.09;;;25.42;52.80
28344;BME280;15597;50.914;6.638;2023-08-17T07:47:40;101096.31;;;25.46;52.56
28344;BME280;15597;50.914;6.638;2023-08-17T07:50:06;101092.66;;;25.47;52.69
28344;BME280;15597;50.914;6.638;2023-08-17T07:52:32;101097.28;;;25.45;52.29
28344;BME280;15597;50.914;6.638;2023-08-17T07:54:57;101092.84;;;25.44;52.55
28344;BME280;15597;50.914;6.638;2023-08-17T07:57:23;101098.00;;;25.47;52.57
28344;BME280;15597;50.914;6.638;2023-08-17T07:59:48;101104.09;;;25.49;52.79
28344;BME280;15597;50.914;6.638;2023-08-17T08:02:14;101104.34;;;25.46;53.22
28344;BME280;15597;50.914;6.638;2023-08-17T08:04:39;101105.91;;;25.49;52.92
28344;BME280;15597;50.914;6.638;2023-08-17T08:07:05;101103.38;;;25.47;52.89
28344;BME280;15597;50.914;6.638;2023-08-17T08:09:31;101104.41;;;25.45;53.28
28344;BME280;15597;50.914;6.638;2023-08-17T08:11:56;101105.06;;;25.48;52.84
28344;BME280;15597;50.914;6.638;2023-08-17T08:14:22;101101.44;;;25.49;53.25
28344;BME280;15597;50.914;6.638;2023-08-17T08:16:47;101098.63;;;25.51;53.15
28344;BME280;15597;50.914;6.638;2023-08-17T08:19:13;101102.91;;;25.54;52.74
28344;BME280;15597;50.914;6.638;2023-08-17T08:21:38;101099.50;;;25.51;52.72
28344;BME280;15597;50.914;6.638;2023-08-17T08:24:04;101100.47;;;25.50;52.73
28344;BME280;15597;50.914;6.638;2023-08-17T08:26:30;101102.03;;;25.53;53.05
28344;BME280;15597;50.914;6.638;2023-08-17T08:28:56;101103.00;;;25.52;53.25
28344;BME280;15597;50.914;6.638;2023-08-17T08:31:21;101098.63;;;25.51;52.93
28344;BME280;15597;50.914;6.638;2023-08-17T08:33:47;101103.13;;;25.50;52.79
28344;BME280;15597;50.914;6.638;2023-08-17T08:36:12;101100.22;;;25.54;52.90
28344;BME280;15597;50.914;6.638;2023-08-17T08:38:38;101100.97;;;25.56;52.67
28344;BME280;15597;50.914;6.638;2023-08-17T08:41:05;101099.00;;;25.58;52.69
28344;BME280;15597;50.914;6.638;2023-08-17T08:43:31;101097.06;;;25.60;53.33
28344;BME280;15597;50.914;6.638;2023-08-17T08:45:58;101095.34;;;25.59;52.68
28344;BME280;15597;50.914;6.638;2023-08-17T08:48:26;101098.13;;;25.57;53.16
28344;BME280;15597;50.914;6.638;2023-08-17T08:50:54;101094.63;;;25.57;53.11
28344;BME280;15597;50.914;6.638;2023-08-17T08:53:25;101092.53;;;25.60;52.91
28344;BME280;15597;50.914;6.638;2023-08-17T08:55:59;101088.06;;;25.61;53.17
28344;BME280;15597;50.914;6.638;2023-08-17T08:58:26;101088.31;;;25.69;53.18
28344;BME280;15597;50.914;6.638;2023-08-17T09:00:52;101085.50;;;25.71;52.48
28344;BME280;15597;50.914;6.638;2023-08-17T09:03:19;101091.00;;;25.69;53.12
28344;BME280;15597;50.914;6.638;2023-08-17T09:05:47;101082.94;;;25.69;53.09
28344;BME280;15597;50.914;6.638;2023-08-17T09:08:15;101089.03;;;25.71;52.95
28344;BME280;15597;50.914;6.638;2023-08-17T09:10:41;101081.97;;;25.70;52.87
28344;BME280;15597;50.914;6.638;2023-08-17T09:13:07;101087.56;;;25.67;53.06
28344;BME280;15597;50.914;6.638;2023-08-17T09:15:34;101085.88;;;25.66;52.92
28344;BME280;15597;50.914;6.638;2023-08-17T09:18:00;101087.81;;;25.64;53.55
28344;BME280;15597;50.914;6.638;2023-08-17T09:20:47;101081.47;;;25.54;53.33
28344;BME280;15597;50.914;6.638;2023-08-17T09:23:14;101083.53;;;25.61;53.55
28344;BME280;15597;50.914;6.638;2023-08-17T09:25:41;101079.03;;;25.62;53.37
28344;BME280;15597;50.914;6.638;2023-08-17T09:28:08;101078.16;;;25.61;53.29
28344;BME280;15597;50.914;6.638;2023-08-17T09:30:48;101079.06;;;25.37;54.16
28344;BME280;15597;50.914;6.638;2023-08-17T09:33:14;101083.22;;;25.42;54.39
28344;BME280;15597;50.914;6.638;2023-08-17T09:35:42;101076.75;;;25.44;54.35
28344;BME280;15597;50.914;6.638;2023-08-17T09:38:07;101072.69;;;25.51;54.17
28344;BME280;15597;50.914;6.638;2023-08-17T09:40:33;101068.56;;;25.59;54.44
28344;BME280;15597;50.914;6.638;2023-08-17T09:42:59;101063.81;;;25.62;53.51
28344;BME280;15597;50.914;6.638;2023-08-17T09:45:26;101068.09;;;25.65;53.58
28344;BME280;15597;50.914;6.638;2023-08-17T09:47:52;101060.78;;;25.67;53.84
28344;BME280;15597;50.914;6.638;2023-08-17T09:50:22;101064.19;;;25.69;53.83
28344;BME280;15597;50.914;6.638;2023-08-17T09:52:53;101067.59;;;25.71;53.54
28344;BME280;15597;50.914;6.638;2023-08-17T09:55:21;101060.16;;;25.75;53.62
28344;BME280;15597;50.914;6.638;2023-08-17T09:57:49;101063.47;;;25.78;53.47
28344;BME280;15597;50.914;6.638;2023-08-17T10:00:16;101066.41;;;25.87;53.17
28344;BME280;15597;50.914;6.638;2023-08-17T10:02:44;101065.19;;;25.91;53.13
28344;BME280;15597;50.914;6.638;2023-08-17T10:05:12;101063.22;;;25.93;53.39
28344;BME280;15597;50.914;6.638;2023-08-17T10:07:43;101057.72;;;25.94;53.17
28344;BME280;15597;50.914;6.638;2023-08-17T10:10:11;101052.13;;;25.98;53.34
28344;BME280;15597;50.914;6.638;2023-08-17T10:12:44;101062.00;;;25.97;53.27
28344;BME280;15597;50.914;6.638;2023-08-17T10:15:13;101054.44;;;26.02;52.86
28344;BME280;15597;50.914;6.638;2023-08-17T10:18:13;101057.88;;;25.93;52.92
28344;BME280;15597;50.914;6.638;2023-08-17T10:20:42;101057.72;;;25.94;53.56
28344;BME280;15597;50.914;6.638;2023-08-17T10:23:14;101059.44;;;25.95;53.51
28344;BME280;15597;50.914;6.638;2023-08-17T10:25:40;101055.56;;;26.00;53.15
28344;BME280;15597;50.914;6.638;2023-08-17T10:28:08;101057.84;;;26.04;53.16
28344;BME280;15597;50.914;6.638;2023-08-17T10:30:36;101059.31;;;26.08;53.34
28344;BME280;15597;50.914;6.638;2023-08-17T10:33:06;101059.31;;;26.08;52.93
28344;BME280;15597;50.914;6.638;2023-08-17T10:35:33;101065.16;;;26.14;53.43
28344;BME280;15597;50.914;6.638;2023-08-17T10:37:59;101058.59;;;26.18;53.17
28344;BME280;15597;50.914;6.638;2023-08-17T10:40:27;101061.03;;;26.21;53.25
28344;BME280;15597;50.914;6.638;2023-08-17T10:42:55;101069.56;;;26.26;53.34
28344;BME280;15597;50.914;6.638;2023-08-17T10:45:29;101068.59;;;26.27;53.06
28344;BME280;15597;50.914;6.638;2023-08-17T10:50:38;101069.47;;;26.28;52.53
28344;BME280;15597;50.914;6.638;2023-08-17T10:53:13;101067.13;;;26.23;52.70
28344;BME280;15597;50.914;6.638;2023-08-17T10:55:46;101068.59;;;26.27;53.12
28344;BME280;15597;50.914;6.638;2023-08-17T10:58:14;101073.69;;;26.30;52.97
28344;BME280;15597;50.914;6.638;2023-08-17T11:00:41;101069.78;;;26.34;52.83
28344;BME280;15597;50.914;6.638;2023-08-17T11:03:19;101076.03;;;26.35;53.17
28344;BME280;15597;50.914;6.638;2023-08-17T11:05:50;101078.31;;;26.39;53.04
28344;BME280;15597;50.914;6.638;2023-08-17T11:08:33;101074.81;;;26.39;52.81
28344;BME280;15597;50.914;6.638;2023-08-17T11:11:08;101079.78;;;26.44;52.92
28344;BME280;15597;50.914;6.638;2023-08-17T11:13:36;101075.66;;;26.51;52.45
28344;BME280;15597;50.914;6.638;2023-08-17T11:16:03;101077.09;;;26.55;52.32
28344;BME280;15597;50.914;6.638;2023-08-17T11:18:30;101086.22;;;26.52;52.55
28344;BME280;15597;50.914;6.638;2023-08-17T11:20:56;101078.31;;;26.51;52.33
28344;BME280;15597;50.914;6.638;2023-08-17T11:23:23;101079.28;;;26.50;52.51
28344;BME280;15597;50.914;6.638;2023-08-17T11:25:49;101079.28;;;26.50;52.16
28344;BME280;15597;50.914;6.638;2023-08-17T11:28:16;101074.16;;;26.47;52.69
28344;BME280;15597;50.914;6.638;2023-08-17T11:30:42;101085.75;;;26.47;52.52
28344;BME280;15597;50.914;6.638;2023-08-17T11:33:09;101084.88;;;26.47;52.74
28344;BME280;15597;50.914;6.638;2023-08-17T11:35:38;101079.53;;;26.47;52.30
28344;BME280;15597;50.914;6.638;2023-08-17T11:38:05;101089.06;;;26.51;52.45
28344;BME280;15597;50.914;6.638;2023-08-17T11:40:31;101084.41;;;26.53;52.50
28344;BME280;15597;50.914;6.638;2023-08-17T11:42:57;101090.63;;;26.53;52.52
28344;BME280;15597;50.914;6.638;2023-08-17T11:45:23;101087.22;;;26.51;52.23
28344;BME280;15597;50.914;6.638;2023-08-17T11:47:52;101093.09;;;26.45;52.77
28344;BME280;15597;50.914;6.638;2023-08-17T11:50:19;101084.41;;;26.42;52.61
28344;BME280;15597;50.914;6.638;2023-08-17T11:52:45;101091.16;;;26.36;53.05
28344;BME280;15597;50.914;6.638;2023-08-17T11:55:15;101085.88;;;26.34;52.91
28344;BME280;15597;50.914;6.638;2023-08-17T11:57:42;101092.22;;;26.33;53.40
28344;BME280;15597;50.914;6.638;2023-08-17T12:00:08;101087.59;;;26.35;53.09
28344;BME280;15597;50.914;6.638;2023-08-17T12:02:35;101086.75;;;26.35;53.22
28344;BME280;15597;50.914;6.638;2023-08-17T12:05:07;101086.50;;;26.38;53.34
28344;BME280;15597;50.914;6.638;2023-08-17T12:07:35;101074.91;;;26.37;53.15
28344;BME280;15597;50.914;6.638;2023-08-17T12:10:04;101079.78;;;26.32;53.43
28344;BME280;15597;50.914;6.638;2023-08-17T12:12:36;101082.25;;;26.24;53.50
28344;BME280;15597;50.914;6.638;2023-08-17T12:15:03;101077.50;;;26.28;53.15
28344;BME280;15597;50.914;6.638;2023-08-17T12:17:29;101087.38;;;26.27;53.23
28344;BME280;15597;50.914;6.638;2023-08-17T12:19:55;101084.94;;;26.24;53.40
28344;BME280;15597;50.914;6.638;2023-08-17T12:22:24;101088.00;;;26.19;53.31
28344;BME280;15597;50.914;6.638;2023-08-17T12:24:50;101083.94;;;26.25;53.75
28344;BME280;15597;50.914;6.638;2023-08-17T12:27:15;101080.44;;;26.24;53.34
28344;BME280;15597;50.914;6.638;2023-08-17T12:29:51;101088.09;;;26.18;53.44
28344;BME280;15597;50.914;6.638;2023-08-17T12:32:19;101090.28;;;26.24;53.39
28344;BME280;15597;50.914;6.638;2023-08-17T12:34:47;101091.88;;;26.27;53.36
28344;BME280;15597;50.914;6.638;2023-08-17T12:37:19;101091.75;;;26.28;53.43
28344;BME280;15597;50.914;6.638;2023-08-17T12:39:46;101085.88;;;26.34;53.40
28344;BME280;15597;50.914;6.638;2023-08-17T12:42:15;101089.31;;;26.36;53.33
28344;BME280;15597;50.914;6.638;2023-08-17T12:44:41;101082.97;;;26.37;53.25
28344;BME280;15597;50.914;6.638;2023-08-17T12:47:07;101079.28;;;26.38;53.09
28344;BME280;15597;50.914;6.638;2023-08-17T12:49:35;101071.00;;;26.42;53.78
28344;BME280;15597;50.914;6.638;2023-08-17T12:52:02;101077.97;;;26.44;53.16
28344;BME280;15597;50.914;6.638;2023-08-17T12:54:27;101076.38;;;26.42;53.06
28344;BME280;15597;50.914;6.638;2023-08-17T12:56:53;101075.78;;;26.38;53.54